Terminal Aerodrome Forecast
Issued by NWS Atlanta, GA

Current Version | Previous Version | Text Only | Print | Product List | Glossary On
Versions: 1 2 3 4 5 6 7 8 9 10 11 12 13 14 15 16 17
000
FTUS42 KFFC 262335
TAFMCN
TAF
KMCN 262335Z 2700/2724 31010G20KT P6SM BKN030 OVC100
     FM270300 31008G18KT P6SM SCT030 BKN100
     FM270800 30006KT P6SM OVC025
     FM271600 31010KT P6SM BKN040
     FM271900 32013G23KT P6SM SCT250=

USA.gov is the U.S. government's official web portal to all federal, state and local government web resources and services.